createdAt,value
2023-02-28T00:01:53.581Z,99448.63
2023-02-28T00:04:38.968Z,99534.28
2023-02-28T00:07:24.662Z,99527.91
2023-02-28T00:10:13.054Z,99542.56
2023-02-28T00:13:07.319Z,99531.53
2023-02-28T00:16:28.008Z,99531.38
2023-02-28T00:19:13.276Z,99523.84
2023-02-28T00:21:58.381Z,99523.19
2023-02-28T00:24:44.060Z,99521.91
2023-02-28T00:27:29.378Z,99489.47
2023-02-28T00:30:17.888Z,99514.31
2023-02-28T00:33:03.516Z,99516.31
2023-02-28T00:35:48.663Z,99525.59
2023-02-28T00:38:34.534Z,99514.06
2023-02-28T00:41:21.164Z,99508.72
2023-02-28T00:44:06.257Z,99522.91
2023-02-28T00:46:51.579Z,99505.91
2023-02-28T00:49:36.973Z,99466.13
2023-02-28T00:52:23.164Z,99514.06
2023-02-28T00:55:08.827Z,99524.06
2023-02-28T00:57:54.375Z,99525.66
2023-02-28T01:00:39.602Z,99517.56
2023-02-28T01:03:25.063Z,99520.69
2023-02-28T01:06:10.635Z,99515.91
2023-02-28T01:08:57.410Z,99517.56
2023-02-28T01:11:42.877Z,99513.81
2023-02-28T01:14:29.098Z,99521.66
2023-02-28T01:17:14.319Z,99518.09
2023-02-28T01:20:00.056Z,99514.31
2023-02-28T01:22:45.410Z,99515.81
2023-02-28T01:25:30.759Z,99447.94
2023-02-28T01:28:16.359Z,99482.66
2023-02-28T01:31:02.288Z,99504.94
2023-02-28T01:33:47.864Z,99504.03
2023-02-28T01:36:33.437Z,99514.28
2023-02-28T01:39:18.600Z,99492.56
2023-02-28T01:42:04.045Z,99510.19
2023-02-28T01:45:26.318Z,99504.34
2023-02-28T01:48:12.393Z,99503.97
2023-02-28T01:51:02.717Z,99510.06
2023-02-28T01:54:00.280Z,99503.63
2023-02-28T01:56:53.123Z,99496.41
2023-02-28T02:00:10.693Z,99504.19
2023-02-28T02:03:05.732Z,99494.66
2023-02-28T02:05:51.318Z,99494.53
2023-02-28T02:08:37.752Z,99446.03
2023-02-28T02:11:25.727Z,99490.69
2023-02-28T02:14:38.463Z,99457.13
2023-02-28T02:17:37.733Z,99489.44
2023-02-28T02:20:41.236Z,99483.69
2023-02-28T02:23:45.168Z,99480.50
2023-02-28T02:26:36.423Z,99485.00
2023-02-28T02:29:55.414Z,99482.00
2023-02-28T02:33:11.093Z,99441.19
2023-02-28T02:36:15.124Z,99482.44
2023-02-28T02:39:03.582Z,99481.50
2023-02-28T02:41:54.768Z,99470.16
2023-02-28T02:44:53.338Z,99472.41
2023-02-28T02:47:40.207Z,99483.59
2023-02-28T02:50:30.815Z,99447.63
2023-02-28T02:53:22.689Z,99480.72
2023-02-28T02:56:09.264Z,99483.56
2023-02-28T02:58:59.642Z,99483.31
2023-02-28T03:01:45.526Z,99479.16
2023-02-28T03:04:41.625Z,99484.94
2023-02-28T03:07:27.894Z,99471.31
2023-02-28T03:10:28.702Z,99484.00
2023-02-28T03:13:50.161Z,99483.00
2023-02-28T03:16:50.575Z,99481.19
2023-02-28T03:19:45.860Z,99476.00
2023-02-28T03:22:59.030Z,99477.00
2023-02-28T03:26:05.572Z,99478.00
2023-02-28T03:29:23.170Z,99475.34
2023-02-28T03:32:36.267Z,99475.84
2023-02-28T03:35:25.827Z,99419.59
2023-02-28T03:38:35.318Z,99472.66
2023-02-28T03:41:24.854Z,99476.19
2023-02-28T03:44:16.565Z,99449.81
2023-02-28T03:47:09.495Z,99466.63
2023-02-28T03:50:16.203Z,99482.16
2023-02-28T03:53:11.744Z,99480.34
2023-02-28T03:56:35.224Z,99480.75
2023-02-28T03:59:51.694Z,99473.81
2023-02-28T04:02:37.015Z,99448.63
2023-02-28T04:05:23.351Z,99476.41
2023-02-28T04:08:09.226Z,99472.59
2023-02-28T04:11:02.566Z,99484.09
2023-02-28T04:13:48.003Z,99480.34
2023-02-28T04:16:35.920Z,99482.75
2023-02-28T04:19:21.524Z,99486.69
2023-02-28T04:22:06.784Z,99488.34
2023-02-28T04:24:52.656Z,99483.53
2023-02-28T04:27:38.013Z,99481.94
2023-02-28T04:30:23.408Z,99485.94
2023-02-28T04:33:08.923Z,99484.66
2023-02-28T04:36:06.130Z,99467.84
2023-02-28T04:38:51.407Z,99485.19
2023-02-28T04:41:36.720Z,99479.50
2023-02-28T04:44:23.098Z,99422.66
2023-02-28T04:47:08.437Z,99498.47
2023-02-28T04:49:53.763Z,99458.47
2023-02-28T04:52:39.048Z,99492.38
2023-02-28T04:55:24.425Z,99495.56
2023-02-28T04:58:10.093Z,99493.19
2023-02-28T05:01:03.525Z,99492.28
2023-02-28T05:03:50.010Z,99478.34
2023-02-28T05:06:35.632Z,99488.59
2023-02-28T05:09:20.971Z,99494.00
2023-02-28T05:12:06.574Z,99504.28
2023-02-28T05:14:51.754Z,99509.31
2023-02-28T05:17:36.944Z,99511.31
2023-02-28T05:20:22.300Z,99485.53
2023-02-28T05:23:09.099Z,99505.03
2023-02-28T05:25:54.681Z,99515.31
2023-02-28T05:28:40.094Z,99516.56
2023-02-28T05:31:25.384Z,99445.75
2023-02-28T05:34:10.512Z,99506.06
2023-02-28T05:36:55.897Z,99519.13
2023-02-28T05:39:41.175Z,99450.84
2023-02-28T05:42:26.666Z,99529.81
2023-02-28T05:45:15.739Z,99470.72
2023-02-28T05:48:01.314Z,99431.44
2023-02-28T05:50:46.954Z,99537.38
2023-02-28T05:53:32.840Z,99448.97
2023-02-28T05:56:18.121Z,99529.94
2023-02-28T05:59:03.368Z,99529.66
2023-02-28T06:01:49.031Z,99486.41
2023-02-28T06:04:34.643Z,99530.66
2023-02-28T06:07:19.866Z,99521.38
2023-02-28T06:10:05.930Z,99466.31
2023-02-28T06:12:51.485Z,99534.78
2023-02-28T06:15:36.991Z,99537.31
2023-02-28T06:18:22.686Z,99489.66
2023-02-28T06:21:08.025Z,99514.69
2023-02-28T06:23:55.066Z,99533.03
2023-02-28T06:26:40.669Z,99541.47
2023-02-28T06:29:26.560Z,99538.91
2023-02-28T06:32:11.897Z,99539.75
2023-02-28T06:34:57.134Z,99525.81
2023-02-28T06:37:42.592Z,99548.00
2023-02-28T06:40:28.287Z,99553.06
2023-02-28T06:43:13.694Z,99561.00
2023-02-28T06:46:01.222Z,99559.88
2023-02-28T06:48:46.701Z,99568.06
2023-02-28T06:51:31.886Z,99565.69
2023-02-28T06:54:17.329Z,99558.72
2023-02-28T06:57:03.369Z,99572.75
2023-02-28T06:59:50.266Z,99564.59
2023-02-28T07:02:36.681Z,99515.09
2023-02-28T07:05:21.761Z,99572.81
2023-02-28T07:08:07.817Z,99562.00
2023-02-28T07:10:56.946Z,99568.75
2023-02-28T07:13:42.401Z,99578.69
2023-02-28T07:16:27.796Z,99576.94
2023-02-28T07:19:13.021Z,99577.69
2023-02-28T07:21:58.135Z,99581.53
2023-02-28T07:24:43.822Z,99543.34
2023-02-28T07:27:29.250Z,99578.78
2023-02-28T07:30:14.819Z,99582.53
2023-02-28T07:32:59.794Z,99581.69
2023-02-28T07:35:45.795Z,99581.09
2023-02-28T07:38:32.065Z,99576.19
2023-02-28T07:41:19.494Z,99582.88
2023-02-28T07:44:04.748Z,99581.88
2023-02-28T07:46:50.131Z,99588.97
2023-02-28T07:49:39.797Z,99543.19
2023-02-28T07:52:25.530Z,99583.03
2023-02-28T07:55:13.526Z,99584.97
2023-02-28T07:57:59.291Z,99587.38
2023-02-28T08:00:44.594Z,99591.75
2023-02-28T08:03:30.130Z,99583.41
2023-02-28T08:06:21.603Z,99587.31
2023-02-28T08:09:06.734Z,99572.78
2023-02-28T08:11:51.997Z,99577.63
2023-02-28T08:14:38.451Z,99535.03
2023-02-28T08:17:24.135Z,99544.81
2023-02-28T08:20:10.282Z,99581.53
2023-02-28T08:22:55.481Z,99576.28
2023-02-28T08:25:41.292Z,99580.22
2023-02-28T08:28:27.543Z,99578.69
2023-02-28T08:31:15.975Z,99556.59
2023-02-28T08:34:01.368Z,99571.78
2023-02-28T08:36:46.471Z,99575.28
2023-02-28T08:39:35.465Z,99560.97
2023-02-28T08:42:21.089Z,99529.31
2023-02-28T08:45:07.019Z,99578.06
2023-02-28T08:47:52.334Z,99566.06
2023-02-28T08:50:37.489Z,99586.38
2023-02-28T08:53:22.843Z,99581.31
2023-02-28T08:56:12.624Z,99588.44
2023-02-28T08:58:58.892Z,99595.78
2023-02-28T09:01:44.288Z,99594.88
2023-02-28T09:04:29.873Z,99599.69
2023-02-28T09:07:15.291Z,99598.34
2023-02-28T09:10:00.519Z,99559.47
2023-02-28T09:12:45.975Z,99586.72
2023-02-28T09:15:31.428Z,99588.47
2023-02-28T09:18:17.639Z,99604.19
2023-02-28T09:21:05.586Z,99589.50
2023-02-28T09:23:51.736Z,99510.59
2023-02-28T09:26:42.786Z,99551.50
2023-02-28T09:29:34.372Z,99586.53
2023-02-28T09:32:19.734Z,99589.31
2023-02-28T09:35:05.714Z,99585.19
2023-02-28T09:37:52.302Z,99591.06
2023-02-28T09:41:16.672Z,99582.53
2023-02-28T09:44:05.388Z,99600.44
2023-02-28T09:46:56.869Z,99589.75
2023-02-28T09:49:47.071Z,99595.13
2023-02-28T09:52:33.555Z,99584.13
2023-02-28T09:55:46.576Z,99591.13
2023-02-28T09:58:48.374Z,99595.78
2023-02-28T10:02:04.944Z,99594.53
2023-02-28T10:04:58.969Z,99588.41
2023-02-28T10:08:03.115Z,99604.97
2023-02-28T10:10:52.427Z,99601.34
2023-02-28T10:14:04.904Z,99600.91
2023-02-28T10:16:54.129Z,99596.81
2023-02-28T10:19:59.913Z,99573.81
2023-02-28T10:22:59.076Z,99532.59
2023-02-28T10:25:51.032Z,99592.59
2023-02-28T10:28:36.830Z,99542.34
2023-02-28T10:31:23.089Z,99603.00
2023-02-28T10:34:13.702Z,99582.38
2023-02-28T10:37:00.207Z,99614.13
2023-02-28T10:39:48.298Z,99608.56
2023-02-28T10:42:33.973Z,99606.28
2023-02-28T10:45:19.671Z,99532.94
2023-02-28T10:48:25.373Z,99597.50
2023-02-28T10:51:23.282Z,99589.94
2023-02-28T10:54:30.186Z,99588.19
2023-02-28T10:57:21.853Z,99592.72
2023-02-28T11:00:23.970Z,99593.44
2023-02-28T11:03:26.107Z,99588.72
2023-02-28T11:06:25.749Z,99587.13
2023-02-28T11:09:26.212Z,99586.75
2023-02-28T11:12:46.938Z,99574.56
2023-02-28T11:15:36.611Z,99531.91
2023-02-28T11:18:55.277Z,99567.59
2023-02-28T11:21:48.941Z,99540.25
2023-02-28T11:24:38.069Z,99573.50
2023-02-28T11:27:32.745Z,99579.03
2023-02-28T11:30:27.421Z,99576.91
2023-02-28T11:33:28.145Z,99576.72
2023-02-28T11:36:29.290Z,99564.31
2023-02-28T11:39:16.387Z,99569.69
2023-02-28T11:42:25.054Z,99541.44
2023-02-28T11:45:23.895Z,99558.53
2023-02-28T11:48:24.310Z,99560.25
2023-02-28T11:51:22.749Z,99551.59
2023-02-28T11:54:36.351Z,99550.47
2023-02-28T11:57:30.881Z,99574.00
2023-02-28T12:00:39.308Z,99560.19
2023-02-28T12:03:37.074Z,99558.59
2023-02-28T12:06:39.887Z,99562.13
2023-02-28T12:09:39.919Z,99541.88
2023-02-28T12:12:46.611Z,99560.94
2023-02-28T12:15:50.098Z,99550.22
2023-02-28T12:18:35.474Z,99544.38
2023-02-28T12:21:39.526Z,99541.81
2023-02-28T12:25:09.496Z,99549.22
2023-02-28T12:27:55.556Z,99539.13
2023-02-28T12:30:52.038Z,99544.31
2023-02-28T12:33:43.101Z,99526.03
2023-02-28T12:36:29.005Z,99525.03
2023-02-28T12:39:23.938Z,99546.63
2023-02-28T12:42:29.309Z,99530.03
2023-02-28T12:45:21.007Z,99531.22
2023-02-28T12:48:11.775Z,99520.41
2023-02-28T12:50:57.904Z,99460.66
2023-02-28T12:53:49.674Z,99510.53
2023-02-28T12:56:48.732Z,99517.25
2023-02-28T12:59:52.058Z,99513.72
2023-02-28T13:03:02.235Z,99522.25
2023-02-28T13:06:09.931Z,99513.81
2023-02-28T13:09:24.883Z,99513.84
2023-02-28T13:12:15.119Z,99499.69
2023-02-28T13:15:06.775Z,99402.09
2023-02-28T13:17:54.596Z,99526.94
2023-02-28T13:20:49.304Z,99513.09
2023-02-28T13:23:40.454Z,99517.66
2023-02-28T13:26:31.975Z,99514.56
2023-02-28T13:29:17.542Z,99509.44
2023-02-28T13:32:09.012Z,99513.81
2023-02-28T13:34:54.478Z,99506.66
2023-02-28T13:37:45.217Z,99490.72
2023-02-28T13:40:35.123Z,99503.25
2023-02-28T13:43:27.899Z,99501.66
2023-02-28T13:46:16.571Z,99504.31
2023-02-28T13:49:23.893Z,99504.53
2023-02-28T13:52:09.295Z,99488.34
2023-02-28T13:55:17.782Z,99499.97
2023-02-28T13:58:17.972Z,99500.59
2023-02-28T14:01:27.002Z,99486.25
2023-02-28T14:04:32.466Z,99483.66
2023-02-28T14:07:28.203Z,99483.88
2023-02-28T14:10:24.933Z,99484.31
2023-02-28T14:13:31.932Z,99485.97
2023-02-28T14:16:22.565Z,99474.38
2023-02-28T14:19:25.415Z,99469.50
2023-02-28T14:22:45.249Z,99476.97
2023-02-28T14:25:33.814Z,99471.22
2023-02-28T14:28:40.980Z,99470.56
2023-02-28T14:31:41.578Z,99472.50
2023-02-28T14:34:45.984Z,99463.06
2023-02-28T14:37:38.233Z,99474.03
2023-02-28T14:40:35.597Z,99472.72
2023-02-28T14:43:26.629Z,99473.78
2023-02-28T14:46:14.579Z,99473.56
2023-02-28T14:48:59.955Z,99481.69
2023-02-28T14:51:45.102Z,99476.91
2023-02-28T14:54:30.713Z,99456.81
2023-02-28T14:57:40.058Z,99402.13
2023-02-28T15:00:32.583Z,99468.06
2023-02-28T15:03:40.467Z,99462.13
2023-02-28T15:06:26.750Z,99471.94
2023-02-28T15:09:19.149Z,99478.31
2023-02-28T15:12:04.957Z,99461.03
2023-02-28T15:14:52.267Z,99478.84
2023-02-28T15:17:37.807Z,99473.63
2023-02-28T15:20:24.705Z,99478.50
2023-02-28T15:23:11.786Z,99461.50
2023-02-28T15:25:58.219Z,99426.66
2023-02-28T15:28:44.801Z,99476.06
2023-02-28T15:31:50.251Z,99471.47
2023-02-28T15:34:43.328Z,99468.81
2023-02-28T15:37:48.125Z,99461.03
2023-02-28T15:40:39.684Z,99471.13
2023-02-28T15:43:24.973Z,99472.72
2023-02-28T15:46:12.963Z,99465.22
2023-02-28T15:48:58.746Z,99438.56
2023-02-28T15:51:44.301Z,99469.75
2023-02-28T15:54:36.446Z,99470.97
2023-02-28T15:57:25.172Z,99477.47
2023-02-28T16:00:14.864Z,99446.78
2023-02-28T16:03:00.489Z,99455.34
2023-02-28T16:05:46.426Z,99482.91
2023-02-28T16:08:31.543Z,99484.19
2023-02-28T16:11:17.204Z,99474.16
2023-02-28T16:14:02.327Z,99420.63
2023-02-28T16:16:51.661Z,99483.19
2023-02-28T16:19:37.165Z,99474.16
2023-02-28T16:22:23.122Z,99478.66
2023-02-28T16:25:12.260Z,99483.94
2023-02-28T16:27:58.123Z,99484.81
2023-02-28T16:30:43.899Z,99492.69
2023-02-28T16:33:30.584Z,99489.25
2023-02-28T16:36:18.791Z,99498.09
2023-02-28T16:39:06.058Z,99478.38
2023-02-28T16:41:52.982Z,99496.22
2023-02-28T16:44:38.345Z,99506.34
2023-02-28T16:47:23.636Z,99508.47
2023-02-28T16:50:26.932Z,99506.97
2023-02-28T16:53:12.215Z,99431.09
2023-02-28T16:55:57.605Z,99469.44
2023-02-28T16:58:43.329Z,99512.34
2023-02-28T17:01:29.693Z,99517.13
2023-02-28T17:04:15.260Z,99504.25
2023-02-28T17:07:00.561Z,99495.19
2023-02-28T17:09:46.803Z,99522.09
2023-02-28T17:12:32.850Z,99520.78
2023-02-28T17:15:20.226Z,99512.69
2023-02-28T17:18:06.772Z,99528.19
2023-02-28T17:20:51.975Z,99521.69
2023-02-28T17:23:37.308Z,99492.50
2023-02-28T17:26:23.599Z,99528.28
2023-02-28T17:29:21.266Z,99530.06
2023-02-28T17:32:17.206Z,99529.44
2023-02-28T17:35:03.271Z,99536.38
2023-02-28T17:37:48.892Z,99460.75
2023-02-28T17:40:34.742Z,99464.34
2023-02-28T17:43:20.227Z,99514.75
2023-02-28T17:46:07.040Z,99542.38
2023-02-28T17:48:55.178Z,99540.69
2023-02-28T17:51:40.426Z,99547.09
2023-02-28T17:54:26.060Z,99549.84
2023-02-28T17:57:17.632Z,99545.41
2023-02-28T18:00:04.321Z,99550.78
2023-02-28T18:02:56.645Z,99499.88
2023-02-28T18:05:42.045Z,99552.47
2023-02-28T18:08:27.645Z,99557.72
2023-02-28T18:11:13.476Z,99553.47
2023-02-28T18:13:58.998Z,99552.81
2023-02-28T18:16:45.600Z,99553.00
2023-02-28T18:19:30.893Z,99546.34
2023-02-28T18:22:16.441Z,99554.41
2023-02-28T18:25:02.053Z,99543.50
2023-02-28T18:27:47.221Z,99543.88
2023-02-28T18:30:36.746Z,99548.22
2023-02-28T18:33:21.888Z,99460.78
2023-02-28T18:36:07.570Z,99551.59
2023-02-28T18:38:53.915Z,99552.28
2023-02-28T18:41:39.910Z,99542.59
2023-02-28T18:44:25.520Z,99541.09
2023-02-28T18:47:10.729Z,99531.66
2023-02-28T18:49:56.030Z,99531.66
2023-02-28T18:52:41.547Z,99534.75
2023-02-28T18:55:27.999Z,99538.44
2023-02-28T18:58:13.593Z,99516.41
2023-02-28T19:01:00.254Z,99520.41
2023-02-28T19:03:46.986Z,99530.00
2023-02-28T19:06:35.259Z,99527.50
2023-02-28T19:09:20.922Z,99525.59
2023-02-28T19:12:07.474Z,99527.50
2023-02-28T19:14:54.241Z,99528.75
2023-02-28T19:17:39.599Z,99229.16
2023-02-28T19:20:25.238Z,99506.88
2023-02-28T19:23:10.385Z,99529.59
2023-02-28T19:25:55.722Z,99526.84
2023-02-28T19:28:41.426Z,99535.53
2023-02-28T19:31:27.089Z,99535.78
2023-02-28T19:34:12.747Z,99532.28
2023-02-28T19:36:58.286Z,99510.97
2023-02-28T19:39:45.100Z,99533.44
2023-02-28T19:42:30.474Z,99521.91
2023-02-28T19:45:15.614Z,99531.00
2023-02-28T19:48:00.904Z,99534.69
2023-02-28T19:50:46.297Z,99537.78
2023-02-28T19:53:32.795Z,99534.09
2023-02-28T19:56:18.100Z,99512.22
2023-02-28T19:59:05.009Z,99452.59
2023-02-28T20:01:52.525Z,99550.94
2023-02-28T20:04:37.962Z,99544.78
2023-02-28T20:07:23.433Z,99546.94
2023-02-28T20:10:10.005Z,99545.88
2023-02-28T20:12:55.541Z,99536.09
2023-02-28T20:15:40.904Z,99534.44
2023-02-28T20:18:26.514Z,99545.06
2023-02-28T20:21:13.002Z,99524.66
2023-02-28T20:23:58.177Z,99553.13
2023-02-28T20:26:44.110Z,99536.44
2023-02-28T20:29:29.949Z,99544.47
2023-02-28T20:32:15.634Z,99543.44
2023-02-28T20:35:00.858Z,99553.03
2023-02-28T20:37:46.152Z,99545.59
2023-02-28T20:40:32.123Z,99501.00
2023-02-28T20:43:17.557Z,99547.00
2023-02-28T20:46:03.490Z,99543.75
2023-02-28T20:48:48.869Z,99548.44
2023-02-28T20:51:34.110Z,99545.28
2023-02-28T20:54:19.664Z,99543.84
2023-02-28T20:57:05.062Z,99549.81
2023-02-28T20:59:50.470Z,99550.28
2023-02-28T21:02:37.112Z,99558.06
2023-02-28T21:05:22.232Z,99552.31
2023-02-28T21:08:07.568Z,99559.88
2023-02-28T21:10:53.075Z,99554.31
2023-02-28T21:13:38.524Z,99559.47
2023-02-28T21:16:26.107Z,99500.59
2023-02-28T21:19:12.216Z,99550.97
2023-02-28T21:21:57.963Z,99545.81
2023-02-28T21:24:43.166Z,99549.91
2023-02-28T21:27:28.876Z,99525.75
2023-02-28T21:30:14.580Z,99552.13
2023-02-28T21:32:59.872Z,99553.47
2023-02-28T21:35:45.392Z,99547.09
2023-02-28T21:38:30.822Z,99553.84
2023-02-28T21:41:19.441Z,99555.19
2023-02-28T21:44:05.491Z,99558.84
2023-02-28T21:46:52.297Z,99562.63
2023-02-28T21:49:37.923Z,99546.78
2023-02-28T21:52:23.259Z,99549.88
2023-02-28T21:55:08.983Z,99551.28
2023-02-28T21:57:54.358Z,99546.03
2023-02-28T22:00:40.411Z,99554.63
2023-02-28T22:03:27.005Z,99553.31
2023-02-28T22:06:18.373Z,99558.84
2023-02-28T22:09:06.161Z,99552.59
2023-02-28T22:11:51.516Z,99559.59
2023-02-28T22:14:39.382Z,99557.78
2023-02-28T22:17:25.029Z,99554.50
2023-02-28T22:20:11.052Z,99556.03
2023-02-28T22:22:56.515Z,99558.75
2023-02-28T22:25:41.999Z,99552.06
2023-02-28T22:28:28.854Z,99527.75
2023-02-28T22:31:19.102Z,99542.59
2023-02-28T22:34:08.488Z,99550.97
2023-02-28T22:36:53.925Z,99556.56
2023-02-28T22:39:39.429Z,99562.56
2023-02-28T22:42:24.808Z,99561.34
2023-02-28T22:45:10.564Z,99551.81
2023-02-28T22:47:55.968Z,99566.66
2023-02-28T22:50:41.804Z,99568.34
2023-02-28T22:53:27.007Z,99567.50
2023-02-28T22:56:14.260Z,99571.03
2023-02-28T22:59:00.994Z,99572.69
2023-02-28T23:01:46.405Z,99568.34
2023-02-28T23:04:31.824Z,99570.03
2023-02-28T23:07:17.160Z,99565.88
2023-02-28T23:10:14.095Z,99536.78
2023-02-28T23:12:59.569Z,99566.84
2023-02-28T23:15:45.504Z,99567.41
2023-02-28T23:18:31.411Z,99557.66
2023-02-28T23:21:16.528Z,99571.19
2023-02-28T23:24:04.832Z,99562.97
2023-02-28T23:26:52.672Z,99561.56
2023-02-28T23:29:38.042Z,99550.44
2023-02-28T23:32:23.550Z,99561.38
2023-02-28T23:35:10.362Z,99544.69
2023-02-28T23:37:56.605Z,99571.25
2023-02-28T23:40:42.001Z,99562.41
2023-02-28T23:43:28.394Z,99566.22
2023-02-28T23:46:15.247Z,99556.78
2023-02-28T23:49:00.270Z,99567.31
2023-02-28T23:51:46.186Z,99564.50
2023-02-28T23:54:32.205Z,99561.78
2023-02-28T23:57:17.682Z,99561.28
